Time;durP1;ratioP1;P1;durP2;ratioP2;P2;SDS_P1;SDS_P2;PMS_P1;PMS_P2;Temp;Humidity;BMP_temperature;BMP_pressure;BME280_temperature;BME280_humidity;BME280_pressure;Samples;Min_cycle;Max_cycle;Signal;HPM_P1;HPM_P2
2022/11/06 00:00:34;;;;;;;0.80;0.80;;;;;;;13.93;100.00;99764.00;5098725;28;20224;-71
2022/11/06 00:03:01;;;;;;;0.82;0.82;;;;;;;13.75;100.00;99738.88;5094714;28;20607;-71
2022/11/06 00:08:14;;;;;;;1.52;1.52;;;;;;;13.68;100.00;99738.91;5105017;28;20227;-70
2022/11/06 00:10:42;;;;;;;0.90;0.90;;;;;;;13.71;100.00;99762.34;5113038;28;20200;-70
2022/11/06 00:13:08;;;;;;;0.90;0.90;;;;;;;13.69;100.00;99764.09;5060683;28;20198;-70
2022/11/06 00:15:35;;;;;;;1.00;1.00;;;;;;;13.70;100.00;99766.69;5093318;28;20194;-70
2022/11/06 00:18:02;;;;;;;1.15;1.15;;;;;;;13.53;100.00;99751.97;5101017;28;20197;-70
2022/11/06 00:20:30;;;;;;;1.17;1.17;;;;;;;13.65;100.00;99757.16;5077319;28;20566;-70
2022/11/06 00:22:57;;;;;;;0.80;0.80;;;;;;;13.48;100.00;99753.72;5104607;28;20191;-70
2022/11/06 00:25:23;;;;;;;1.10;1.10;;;;;;;13.39;100.00;99739.84;5103926;28;20213;-70
2022/11/06 00:27:50;;;;;;;0.90;0.90;;;;;;;13.50;100.00;99754.59;5112950;27;20213;-70
2022/11/06 00:30:19;;;;;;;0.90;0.90;;;;;;;13.43;100.00;99751.13;5113191;28;20190;-71
2022/11/06 00:32:46;;;;;;;1.00;1.00;;;;;;;13.43;100.00;99755.47;5102083;28;20197;-70
2022/11/06 00:35:13;;;;;;;0.80;0.80;;;;;;;13.41;100.00;99755.47;5043569;28;20206;-71
2022/11/06 00:37:41;;;;;;;0.80;0.80;;;;;;;13.50;100.00;99760.66;5094035;28;20194;-71
2022/11/06 00:40:08;;;;;;;0.80;0.80;;;;;;;13.40;100.00;99754.63;5099435;28;20703;-71
2022/11/06 00:42:35;;;;;;;0.80;0.80;;;;;;;13.35;100.00;99756.34;5112120;28;20200;-71
2022/11/06 00:45:02;;;;;;;1.35;1.35;;;;;;;13.24;100.00;99759.81;5111552;28;20202;-71
2022/11/06 00:47:28;;;;;;;1.65;1.65;;;;;;;13.26;100.00;99764.19;5111869;28;20236;-71
2022/11/06 00:49:55;;;;;;;0.90;0.90;;;;;;;13.00;100.00;99737.25;5104559;28;20209;-71
2022/11/06 00:52:22;;;;;;;0.80;0.80;;;;;;;13.16;100.00;99761.59;5092668;28;20255;-70
2022/11/06 00:54:50;;;;;;;2.70;2.15;;;;;;;13.22;100.00;99762.44;5092642;28;20198;-70
2022/11/06 00:57:17;;;;;;;0.95;0.95;;;;;;;13.11;100.00;99764.19;5107742;28;20279;-71
2022/11/06 00:59:44;;;;;;;1.45;1.45;;;;;;;13.14;100.00;99764.19;5103627;28;20206;-71
2022/11/06 01:02:10;;;;;;;0.88;0.88;;;;;;;13.01;100.00;99744.22;5106938;28;20190;-71
2022/11/06 01:04:37;;;;;;;0.90;0.90;;;;;;;13.13;100.00;99762.44;5092225;28;20225;-70
2022/11/06 01:07:04;;;;;;;0.80;0.80;;;;;;;13.09;100.00;99771.09;5092226;28;20218;-71
2022/11/06 01:09:31;;;;;;;0.77;0.77;;;;;;;13.01;100.00;99759.81;5108688;28;20193;-70
2022/11/06 01:11:59;;;;;;;1.00;1.00;;;;;;;13.05;100.00;99738.13;5099977;28;20198;-70
2022/11/06 01:14:27;;;;;;;3.40;3.20;;;;;;;13.06;100.00;99755.47;5092117;28;20263;-71
2022/11/06 01:16:54;;;;;;;0.80;0.80;;;;;;;12.74;100.00;99720.75;5092215;28;20197;-70
2022/11/06 01:19:22;;;;;;;0.90;0.90;;;;;;;13.00;100.00;99771.09;5058890;28;20738;-71
2022/11/06 01:21:51;;;;;;;0.80;0.80;;;;;;;12.95;100.00;99761.56;5087745;28;20218;-70
2022/11/06 01:24:21;;;;;;;0.80;0.80;;;;;;;12.96;100.00;99764.16;5092401;28;20213;-70
2022/11/06 01:26:48;;;;;;;1.48;1.48;;;;;;;12.89;100.00;99765.00;5110108;28;20221;-70
2022/11/06 01:29:18;;;;;;;2.45;2.35;;;;;;;12.96;100.00;99764.16;5111901;28;20205;-70
2022/11/06 01:31:48;;;;;;;0.80;0.80;;;;;;;12.72;100.00;99732.91;5110461;28;20201;-70
2022/11/06 01:34:15;;;;;;;0.82;0.82;;;;;;;12.75;100.00;99762.41;5111844;28;20224;-70
2022/11/06 01:36:42;;;;;;;1.00;1.00;;;;;;;12.60;100.00;99740.69;5111035;28;20606;-70
2022/11/06 01:39:12;;;;;;;0.80;0.80;;;;;;;12.83;100.00;99762.41;5096013;28;20216;-70
2022/11/06 01:41:41;;;;;;;2.15;2.05;;;;;;;12.81;100.00;99756.31;5091170;28;20209;-71
2022/11/06 01:44:41;;;;;;;3.13;1.55;;;;;;;12.84;100.00;99764.16;5092314;28;20248;-70
2022/11/06 01:47:19;;;;;;;0.80;0.80;;;;;;;12.83;100.00;99757.22;5084224;28;20245;-70
2022/11/06 01:49:46;;;;;;;0.80;0.80;;;;;;;12.69;100.00;99772.81;5091179;28;20206;-70
2022/11/06 01:52:15;;;;;;;0.80;0.80;;;;;;;12.79;100.00;99760.66;5107671;28;20193;-71
2022/11/06 01:54:46;;;;;;;25.85;2.00;;;;;;;12.77;100.00;99763.25;5093641;28;20205;-70
2022/11/06 01:57:13;;;;;;;0.80;0.80;;;;;;;12.54;100.00;99753.69;5107087;28;20201;-71
2022/11/06 01:59:44;;;;;;;0.70;0.70;;;;;;;12.73;100.00;99771.09;5100335;28;20204;-70
2022/11/06 02:02:12;;;;;;;0.80;0.80;;;;;;;12.50;100.00;99749.34;5096617;28;20206;-71
2022/11/06 02:04:43;;;;;;;1.00;1.00;;;;;;;12.70;100.00;99776.28;5090966;28;20682;-71
2022/11/06 02:07:10;;;;;;;1.35;1.35;;;;;;;12.61;100.00;99771.91;5087185;28;20221;-70
2022/11/06 02:09:37;;;;;;;0.90;0.90;;;;;;;12.61;100.00;99779.72;5108575;28;20612;-71
2022/11/06 02:12:17;;;;;;;0.75;0.75;;;;;;;12.26;100.00;99701.66;5111509;28;20197;-71
2022/11/06 02:14:55;;;;;;;0.80;0.80;;;;;;;12.55;100.00;99753.72;5110927;28;20201;-71
2022/11/06 02:17:36;;;;;;;1.08;1.08;;;;;;;12.75;100.00;99774.53;5071002;28;20206;-70
2022/11/06 02:20:10;;;;;;;0.80;0.80;;;;;;;12.49;100.00;99745.00;5098502;28;20337;-71
2022/11/06 02:22:53;;;;;;;0.90;0.90;;;;;;;12.60;100.00;99764.09;5100398;28;20685;-70
2022/11/06 02:25:30;;;;;;;0.70;0.70;;;;;;;12.69;100.00;99792.75;5094802;28;20249;-70
2022/11/06 02:28:02;;;;;;;0.80;0.80;;;;;;;12.65;100.00;99781.47;5091004;28;20267;-71
2022/11/06 02:30:33;;;;;;;0.70;0.70;;;;;;;12.17;100.00;99713.75;5090746;28;20202;-71
2022/11/06 02:33:03;;;;;;;0.82;0.82;;;;;;;12.66;100.00;99797.94;5090874;28;20202;-71
2022/11/06 02:35:36;;;;;;;1.80;1.80;;;;;;;12.71;100.00;99810.09;5091215;28;20259;-70
2022/11/06 02:38:07;;;;;;;0.80;0.80;;;;;;;12.64;100.00;99817.88;5091092;28;20686;-71
2022/11/06 02:40:38;;;;;;;0.90;0.90;;;;;;;12.66;100.00;99810.94;5105731;28;20200;-70
2022/11/06 02:43:08;;;;;;;1.33;1.27;;;;;;;12.31;100.00;99756.22;5106073;28;20194;-70
2022/11/06 02:45:42;;;;;;;0.80;0.80;;;;;;;12.61;100.00;99808.34;5090720;28;20198;-70
2022/11/06 02:48:12;;;;;;;0.80;0.80;;;;;;;12.76;100.00;99812.69;5093897;28;20320;-70
2022/11/06 02:50:43;;;;;;;0.80;0.80;;;;;;;12.87;100.00;99821.41;5063069;28;20212;-71
2022/11/06 02:53:12;;;;;;;1.00;1.00;;;;;;;12.91;100.00;99820.53;5097761;28;20811;-70
2022/11/06 02:55:43;;;;;;;0.80;0.80;;;;;;;13.01;100.00;99830.09;5094842;28;20202;-70
2022/11/06 02:58:16;;;;;;;0.70;0.70;;;;;;;13.07;100.00;99822.28;5095465;28;20205;-70
2022/11/06 03:00:49;;;;;;;0.90;0.90;;;;;;;13.09;100.00;99823.16;5101481;28;20202;-70
2022/11/06 03:03:24;;;;;;;0.90;0.90;;;;;;;13.06;100.00;99820.53;5073974;28;20189;-70
2022/11/06 03:05:56;;;;;;;1.35;1.35;;;;;;;13.01;100.00;99811.00;5114919;27;20220;-70
2022/11/06 03:08:28;;;;;;;0.80;0.80;;;;;;;13.12;100.00;99828.41;5115251;28;20276;-69
2022/11/06 03:11:04;;;;;;;0.77;0.77;;;;;;;13.13;100.00;99824.91;5106168;28;20214;-70
2022/11/06 03:13:44;;;;;;;0.90;0.90;;;;;;;13.23;100.00;99834.47;5097791;28;20323;-70
2022/11/06 03:16:25;;;;;;;2.22;2.08;;;;;;;13.22;100.00;99830.13;5112085;28;20201;-70
2022/11/06 03:18:58;;;;;;;0.90;0.90;;;;;;;13.31;100.00;99837.06;5104736;28;20198;-70
2022/11/06 03:21:30;;;;;;;1.23;1.23;;;;;;;13.30;100.00;99840.56;5094569;28;20198;-70
2022/11/06 03:24:04;;;;;;;0.80;0.80;;;;;;;13.33;100.00;99844.03;5095249;28;20267;-70
2022/11/06 03:26:35;;;;;;;0.60;0.60;;;;;;;13.36;100.00;99849.22;5114284;28;20723;-70
2022/11/06 03:29:12;;;;;;;0.82;0.82;;;;;;;13.50;100.00;99846.63;5114252;28;20229;-69
2022/11/06 03:31:47;;;;;;;0.80;0.80;;;;;;;13.55;100.00;99847.50;5114121;28;20212;-70
2022/11/06 03:34:21;;;;;;;0.80;0.80;;;;;;;13.31;100.00;99819.72;5107985;28;20766;-70
2022/11/06 03:36:52;;;;;;;0.70;0.70;;;;;;;13.51;100.00;99844.88;5098626;28;20657;-71
2022/11/06 03:39:25;;;;;;;0.77;0.77;;;;;;;13.71;100.00;99857.00;5102480;28;20194;-70
2022/11/06 03:41:59;;;;;;;0.75;0.75;;;;;;;13.72;100.00;99868.31;5093868;28;20205;-70
2022/11/06 03:44:32;;;;;;;0.77;0.77;;;;;;;13.77;100.00;99866.53;5057610;28;20206;-70
2022/11/06 03:47:07;;;;;;;0.70;0.70;;;;;;;13.75;100.00;99870.91;5093958;28;20257;-70
2022/11/06 03:49:39;;;;;;;0.70;0.70;;;;;;;13.31;100.00;99835.31;5103864;28;20212;-70
2022/11/06 03:52:11;;;;;;;0.70;0.70;;;;;;;13.47;100.00;99863.97;5111388;28;20193;-70
2022/11/06 03:54:42;;;;;;;0.68;0.68;;;;;;;13.51;100.00;99865.72;5101067;28;20193;-69
2022/11/06 03:57:14;;;;;;;0.70;0.70;;;;;;;13.49;100.00;99841.38;5113082;28;20193;-70
2022/11/06 03:59:46;;;;;;;1.13;1.13;;;;;;;13.63;100.00;99863.09;5098885;28;20297;-69
2022/11/06 04:02:16;;;;;;;0.80;0.80;;;;;;;13.44;100.00;99872.66;5094908;28;20198;-70
2022/11/06 04:04:47;;;;;;;0.73;0.73;;;;;;;13.49;100.00;99849.22;5093392;28;20398;-70
2022/11/06 04:07:19;;;;;;;1.73;1.65;;;;;;;13.65;100.00;99866.59;5093539;28;20296;-69
2022/11/06 04:15:30;;;;;;;0.70;0.70;;;;;;;13.91;100.00;99877.84;5050586;28;20207;-70
2022/11/06 04:17:57;;;;;;;0.80;0.80;;;;;;;13.73;100.00;99875.25;5058556;28;20207;-70
2022/11/06 04:23:19;;;;;;;0.70;0.70;;;;;;;13.98;100.00;99887.38;5050641;28;20210;-70
2022/11/06 04:28:52;;;;;;;1.15;1.15;;;;;;;13.81;100.00;99889.13;5057361;28;20762;-70
2022/11/06 04:31:32;;;;;;;0.80;0.80;;;;;;;13.80;100.00;99892.63;5060220;28;20341;-70
2022/11/06 04:34:04;;;;;;;0.60;0.60;;;;;;;13.79;100.00;99896.09;5036655;28;20190;-71
2022/11/06 04:36:46;;;;;;;0.70;0.70;;;;;;;13.94;100.00;99884.78;5070290;28;20202;-70
2022/11/06 04:39:21;;;;;;;0.80;0.80;;;;;;;13.98;100.00;99892.59;5062910;28;20258;-70
2022/11/06 04:41:58;;;;;;;1.10;1.10;;;;;;;13.93;100.00;99889.13;5055677;28;20203;-70
2022/11/06 04:44:30;;;;;;;0.90;0.90;;;;;;;13.96;100.00;99889.13;5051497;28;20214;-70
2022/11/06 04:47:01;;;;;;;0.90;0.90;;;;;;;14.03;100.00;99900.38;5049948;28;20222;-71
2022/11/06 04:49:31;;;;;;;0.80;0.80;;;;;;;13.93;100.00;99902.16;5006929;28;20201;-70
2022/11/06 04:51:59;;;;;;;0.80;0.80;;;;;;;13.77;100.00;99890.88;5072684;28;20208;-71
2022/11/06 04:54:26;;;;;;;1.85;1.25;;;;;;;13.80;100.00;99900.44;5109583;28;20592;-70
2022/11/06 04:56:59;;;;;;;0.77;0.77;;;;;;;13.70;100.00;99883.94;5112712;28;20220;-72
2022/11/06 04:59:26;;;;;;;0.70;0.70;;;;;;;13.52;100.00;99896.13;5103069;28;20888;-71
2022/11/06 05:01:53;;;;;;;0.70;0.70;;;;;;;13.51;100.00;99894.38;5100908;28;20204;-71
2022/11/06 05:04:21;;;;;;;0.73;0.73;;;;;;;13.67;100.00;99907.38;5107784;28;20229;-71
2022/11/06 05:06:48;;;;;;;0.68;0.68;;;;;;;13.59;100.00;99897.84;5094702;28;20210;-72
2022/11/06 05:09:14;;;;;;;1.20;1.20;;;;;;;13.63;100.00;99907.38;5106837;28;20213;-72
2022/11/06 05:11:41;;;;;;;0.70;0.70;;;;;;;13.64;100.00;99906.50;5100016;28;20202;-72
2022/11/06 05:14:08;;;;;;;1.30;1.17;;;;;;;13.59;100.00;99903.91;5095916;28;20657;-72
2022/11/06 05:16:35;;;;;;;0.70;0.70;;;;;;;13.47;100.00;99908.25;5092989;28;20669;-72
2022/11/06 05:19:01;;;;;;;0.70;0.70;;;;;;;13.34;100.00;99912.59;5095719;28;20194;-72
2022/11/06 05:24:14;;;;;;;0.80;0.80;;;;;;;13.45;100.00;99916.06;5112038;28;20684;-71
2022/11/06 05:26:41;;;;;;;0.70;0.70;;;;;;;13.51;100.00;99915.22;5111145;27;20212;-72
2022/11/06 05:29:07;;;;;;;0.70;0.70;;;;;;;13.59;100.00;99913.47;5105335;28;20732;-71
2022/11/06 05:31:34;;;;;;;0.60;0.60;;;;;;;13.77;100.00;99923.88;5107951;28;20194;-76
2022/11/06 05:34:01;;;;;;;0.88;0.88;;;;;;;13.84;100.00;99923.03;5093333;28;20198;-75
2022/11/06 05:36:28;;;;;;;0.70;0.70;;;;;;;13.87;100.00;99936.06;5111172;28;20570;-80
2022/11/06 05:38:56;;;;;;;0.60;0.60;;;;;;;14.02;100.00;99946.44;5107257;28;20201;-72
2022/11/06 05:41:23;;;;;;;0.60;0.60;;;;;;;13.97;100.00;99948.22;5102188;28;20211;-71
2022/11/06 05:43:49;;;;;;;1.00;1.00;;;;;;;13.95;100.00;99947.31;5085603;28;20213;-71
2022/11/06 05:46:16;;;;;;;0.80;0.80;;;;;;;14.02;100.00;99962.09;5097584;28;20563;-72
2022/11/06 05:48:43;;;;;;;0.90;0.90;;;;;;;14.08;100.00;99962.09;5104957;28;20744;-72
2022/11/06 05:51:10;;;;;;;0.75;0.75;;;;;;;14.15;100.00;99969.03;5110519;28;20212;-71
2022/11/06 05:53:37;;;;;;;0.70;0.70;;;;;;;14.26;100.00;99959.47;5075954;28;20197;-71
2022/11/06 05:56:07;;;;;;;0.70;0.70;;;;;;;14.36;100.00;99974.25;5111960;28;20209;-71
2022/11/06 05:58:33;;;;;;;2.58;1.30;;;;;;;14.37;100.00;99985.56;5103920;28;20198;-71
2022/11/06 06:01:00;;;;;;;0.70;0.70;;;;;;;14.38;100.00;99988.16;5079145;28;20209;-71
2022/11/06 06:03:27;;;;;;;1.33;1.33;;;;;;;14.29;100.00;99969.88;5093642;28;20197;-72
2022/11/06 06:05:54;;;;;;;0.70;0.70;;;;;;;14.57;100.00;99994.19;5105212;28;20742;-71
2022/11/06 06:08:21;;;;;;;1.25;0.90;;;;;;;14.58;100.00;99995.94;5048002;28;20222;-72
2022/11/06 06:10:48;;;;;;;0.80;0.80;;;;;;;14.72;100.00;99995.91;5069965;28;20210;-72
2022/11/06 06:13:17;;;;;;;0.70;0.70;;;;;;;14.77;100.00;99986.28;5102106;28;20603;-72
2022/11/06 06:15:44;;;;;;;1.13;0.90;;;;;;;14.75;100.00;100004.59;5090983;28;20988;-72
2022/11/06 06:18:12;;;;;;;0.85;0.80;;;;;;;14.90;100.00;100016.72;5091424;28;20670;-74
2022/11/06 06:20:39;;;;;;;0.63;0.63;;;;;;;14.98;100.00;100020.19;5053368;28;20590;-72
2022/11/06 06:23:06;;;;;;;1.17;0.88;;;;;;;14.84;100.00;99977.56;5090877;28;20210;-74
2022/11/06 06:25:33;;;;;;;1.60;1.58;;;;;;;15.11;100.00;100024.47;5095012;28;20213;-73
2022/11/06 06:28:00;;;;;;;0.90;0.90;;;;;;;15.22;100.00;100027.91;5090939;28;20708;-73
2022/11/06 06:30:28;;;;;;;0.70;0.70;;;;;;;15.60;100.00;100013.78;5053244;28;20198;-72
2022/11/06 06:32:55;;;;;;;0.70;0.70;;;;;;;15.54;100.00;100037.34;5090210;28;20206;-74
2022/11/06 06:35:21;;;;;;;0.80;0.80;;;;;;;15.61;100.00;100029.47;5092811;28;20631;-72
2022/11/06 06:37:52;;;;;;;1.25;1.25;;;;;;;15.87;100.00;100045.81;5100707;28;20200;-73
2022/11/06 06:40:19;;;;;;;0.88;0.82;;;;;;;15.58;100.00;100039.06;5096037;28;20226;-73
2022/11/06 06:42:46;;;;;;;1.77;1.42;;;;;;;15.77;100.00;100019.75;5095015;28;20285;-73
2022/11/06 06:45:13;;;;;;;1.33;1.23;;;;;;;15.80;100.00;100040.69;5087132;28;20217;-73
2022/11/06 06:47:41;;;;;;;2.03;1.08;;;;;;;15.96;100.00;100041.41;5058622;28;20587;-74
2022/11/06 06:50:09;;;;;;;0.60;0.60;;;;;;;16.07;100.00;100037.84;5081826;28;20575;-75
2022/11/06 06:52:36;;;;;;;1.10;1.10;;;;;;;15.78;100.00;100035.44;5074139;28;20206;-73
2022/11/06 06:55:03;;;;;;;0.98;0.80;;;;;;;15.53;100.00;100023.41;5083107;28;20198;-73
2022/11/06 06:57:29;;;;;;;1.02;1.02;;;;;;;15.61;100.00;100045.16;5093724;28;20202;-74
2022/11/06 06:59:56;;;;;;;0.68;0.68;;;;;;;15.78;100.00;100050.25;5083212;28;20281;-74
2022/11/06 07:02:23;;;;;;;1.23;1.23;;;;;;;15.58;100.00;100047.78;5067203;28;20202;-74
2022/11/06 07:04:51;;;;;;;2.00;1.50;;;;;;;15.79;100.00;100041.56;5071309;28;20234;-73
2022/11/06 07:07:18;;;;;;;1.13;1.13;;;;;;;15.60;100.00;100042.53;5077785;28;20203;-72
2022/11/06 07:09:45;;;;;;;1.60;1.50;;;;;;;15.30;100.00;100041.78;5079667;28;20208;-72
2022/11/06 07:12:11;;;;;;;1.67;1.35;;;;;;;15.07;100.00;99973.13;5093992;28;20206;-73
2022/11/06 07:14:38;;;;;;;0.65;0.65;;;;;;;15.46;100.00;100042.59;5097512;28;20202;-72
2022/11/06 07:17:05;;;;;;;0.70;0.70;;;;;;;15.18;100.00;100035.75;5093355;28;20213;-73
2022/11/06 07:19:32;;;;;;;3.85;2.17;;;;;;;15.37;100.00;100042.66;5089929;28;20724;-74
2022/11/06 07:22:00;;;;;;;3.60;2.55;;;;;;;15.83;100.00;100048.50;5089842;28;20686;-73
2022/11/06 07:24:26;;;;;;;1.77;1.20;;;;;;;16.00;100.00;100056.22;5090281;28;20190;-73
2022/11/06 07:26:53;;;;;;;1.05;1.00;;;;;;;16.04;100.00;100047.47;5090063;28;20252;-73
2022/11/06 07:29:20;;;;;;;2.03;1.88;;;;;;;16.10;100.00;100053.50;5105291;28;20198;-74
2022/11/06 07:31:47;;;;;;;1.00;1.00;;;;;;;16.22;100.00;100061.28;5063658;28;20267;-73
2022/11/06 07:34:14;;;;;;;0.88;0.85;;;;;;;16.73;100.00;100077.44;5092949;28;20202;-71
2022/11/06 07:36:40;;;;;;;1.65;1.17;;;;;;;16.80;100.00;100069.47;5088252;28;20211;-74
2022/11/06 07:39:08;;;;;;;0.82;0.82;;;;;;;17.04;100.00;100094.53;5090631;28;20279;-74
2022/11/06 07:41:35;;;;;;;1.85;1.17;;;;;;;16.88;100.00;100045.81;5085788;28;20296;-75
2022/11/06 07:44:02;;;;;;;0.75;0.75;;;;;;;17.25;100.00;100098.66;5085291;28;20213;-74
2022/11/06 07:46:29;;;;;;;0.82;0.82;;;;;;;17.28;100.00;100102.13;5093934;27;20561;-74
2022/11/06 07:48:56;;;;;;;0.70;0.70;;;;;;;17.24;100.00;100107.41;5089005;28;20210;-75
2022/11/06 07:51:22;;;;;;;0.60;0.60;;;;;;;17.48;100.00;100104.47;5089828;28;20206;-75
2022/11/06 07:53:49;;;;;;;1.08;1.08;;;;;;;17.23;100.00;100109.16;5088764;28;20267;-74
2022/11/06 07:56:17;;;;;;;1.23;1.20;;;;;;;17.07;100.00;100021.16;5085766;28;20679;-75
2022/11/06 07:58:44;;;;;;;0.80;0.80;;;;;;;17.56;100.00;100117.50;5085026;28;20229;-75
2022/11/06 08:01:15;;;;;;;1.20;1.13;;;;;;;17.62;100.00;100109.59;5089803;28;20202;-75
2022/11/06 08:03:42;;;;;;;0.88;0.88;;;;;;;17.70;100.00;100123.47;5087506;28;20214;-74
2022/11/06 08:06:09;;;;;;;0.60;0.60;;;;;;;17.65;100.00;100120.06;5073621;28;20202;-74
2022/11/06 08:08:36;;;;;;;0.85;0.82;;;;;;;17.50;100.00;100100.09;5106335;28;20212;-75
2022/11/06 08:11:03;;;;;;;0.75;0.75;;;;;;;17.74;100.00;100135.66;5089733;28;20213;-74
2022/11/06 08:13:33;;;;;;;0.60;0.60;;;;;;;17.45;100.00;100040.75;5091967;28;20288;-75
2022/11/06 08:16:03;;;;;;;0.65;0.65;;;;;;;18.07;100.00;100135.19;5087358;28;20249;-74
2022/11/06 08:18:30;;;;;;;1.20;1.20;;;;;;;17.82;100.00;100126.81;5092042;28;20233;-74
2022/11/06 08:20:57;;;;;;;0.75;0.75;;;;;;;17.93;100.00;100063.69;5087664;28;20274;-75
2022/11/06 08:23:24;;;;;;;0.60;0.60;;;;;;;18.14;100.00;100141.22;5091528;28;20198;-74
2022/11/06 08:25:54;;;;;;;0.85;0.85;;;;;;;18.43;100.00;100138.16;5091785;28;20198;-75
2022/11/06 08:28:20;;;;;;;0.88;0.88;;;;;;;18.15;100.00;100127.22;5081744;28;20211;-75
2022/11/06 08:30:48;;;;;;;0.73;0.73;;;;;;;18.58;100.00;100133.56;5087883;28;20259;-74
2022/11/06 08:33:15;;;;;;;0.80;0.80;;;;;;;18.06;100.00;100135.19;5092015;28;20207;-75
2022/11/06 08:35:42;;;;;;;0.60;0.60;;;;;;;18.02;100.00;100137.00;5072467;28;20210;-74
2022/11/06 08:38:09;;;;;;;0.80;0.80;;;;;;;18.19;100.00;100116.63;5085366;28;20229;-74
2022/11/06 08:40:37;;;;;;;0.60;0.60;;;;;;;18.66;100.00;100139.53;5084825;28;20229;-74
2022/11/06 08:43:07;;;;;;;0.50;0.50;;;;;;;18.33;100.00;100140.91;5091852;28;20234;-74
2022/11/06 08:45:36;;;;;;;2.75;1.35;;;;;;;18.64;100.00;100135.19;5093368;28;20202;-74
2022/11/06 08:48:06;;;;;;;0.68;0.68;;;;;;;18.98;100.00;100141.59;5094593;28;20202;-74
2022/11/06 08:50:33;;;;;;;1.85;1.75;;;;;;;19.15;100.00;100146.56;5092551;28;20251;-73
2022/11/06 08:53:02;;;;;;;0.90;0.90;;;;;;;19.37;100.00;100142.59;5104836;28;20202;-73
2022/11/06 08:55:29;;;;;;;0.90;0.80;;;;;;;19.38;100.00;100151.34;5085057;28;20206;-74
2022/11/06 08:57:56;;;;;;;1.48;1.00;;;;;;;19.17;100.00;100142.13;5087577;28;20202;-74
2022/11/06 09:00:24;;;;;;;0.60;0.60;;;;;;;19.28;100.00;100135.75;5083656;28;20267;-75
2022/11/06 09:02:50;;;;;;;1.00;1.00;;;;;;;19.68;100.00;100148.16;5084775;28;20285;-74
2022/11/06 09:05:18;;;;;;;1.27;1.15;;;;;;;19.83;100.00;100146.97;5071997;28;20226;-75
2022/11/06 09:07:45;;;;;;;0.60;0.60;;;;;;;19.87;100.00;100154.72;5082192;28;20561;-74
2022/11/06 09:10:12;;;;;;;1.00;1.00;;;;;;;20.19;100.00;100149.63;5056032;28;20202;-74
2022/11/06 09:12:39;;;;;;;0.65;0.65;;;;;;;20.49;100.00;100149.84;5058487;28;20213;-74
2022/11/06 09:15:06;;;;;;;0.60;0.60;;;;;;;20.65;100.00;100151.19;5090998;28;20210;-74
2022/11/06 09:17:33;;;;;;;0.60;0.60;;;;;;;20.66;100.00;100116.03;5090111;28;20206;-74
2022/11/06 09:20:00;;;;;;;1.70;1.63;;;;;;;21.14;98.19;100143.78;5099391;28;20234;-73
2022/11/06 09:22:28;;;;;;;1.08;0.80;;;;;;;20.94;97.17;100153.09;5090692;28;20198;-74
2022/11/06 09:24:55;;;;;;;1.00;1.00;;;;;;;20.57;98.64;100147.88;5092752;28;20209;-73
2022/11/06 09:27:22;;;;;;;1.10;1.10;;;;;;;20.55;98.06;100124.19;5059600;28;20689;-74
2022/11/06 09:29:48;;;;;;;0.80;0.80;;;;;;;20.72;98.50;100144.88;5091381;28;20612;-74
2022/11/06 09:32:15;;;;;;;0.73;0.73;;;;;;;20.59;97.80;100146.06;5097440;28;20291;-74
2022/11/06 09:34:42;;;;;;;0.70;0.70;;;;;;;20.74;98.02;100140.41;5093964;28;20210;-73
2022/11/06 09:37:09;;;;;;;1.42;1.23;;;;;;;20.74;98.94;100127.25;5095012;28;20545;-74
2022/11/06 09:39:37;;;;;;;1.48;0.90;;;;;;;20.84;96.96;100110.28;5092786;28;20230;-73
2022/11/06 09:42:17;;;;;;;6.45;3.65;;;;;;;21.15;96.89;100131.47;5059757;28;20262;-75
2022/11/06 09:44:57;;;;;;;1.88;1.70;;;;;;;21.35;94.25;100133.53;5091231;28;20213;-75
2022/11/06 09:47:29;;;;;;;0.70;0.70;;;;;;;21.38;94.95;100126.41;5081675;28;20217;-75
2022/11/06 09:49:58;;;;;;;2.00;1.80;;;;;;;21.25;94.57;100102.16;5072244;28;20263;-75
2022/11/06 09:52:32;;;;;;;0.80;0.80;;;;;;;21.39;93.82;100119.34;5091001;28;20198;-74
2022/11/06 09:55:03;;;;;;;1.75;1.50;;;;;;;21.65;93.98;100124.75;5089728;28;20203;-74
2022/11/06 09:57:38;;;;;;;0.80;0.80;;;;;;;21.44;93.99;100120.94;5076692;28;20590;-74
2022/11/06 10:00:06;;;;;;;2.20;1.70;;;;;;;21.22;94.05;100112.75;5080292;28;20246;-74
2022/11/06 10:02:42;;;;;;;1.83;1.73;;;;;;;20.99;95.35;100115.16;5082618;28;20204;-74
2022/11/06 10:05:19;;;;;;;5.18;2.80;;;;;;;20.98;96.58;100117.81;5073931;28;20221;-75
2022/11/06 10:07:47;;;;;;;1.77;1.23;;;;;;;20.75;96.68;100087.69;5076990;28;20201;-75
2022/11/06 10:10:18;;;;;;;0.95;0.93;;;;;;;21.30;94.59;100090.63;5095982;28;20251;-74
2022/11/06 10:13:02;;;;;;;1.92;1.83;;;;;;;21.17;95.09;100101.50;5092400;28;20217;-74
2022/11/06 10:15:34;;;;;;;0.70;0.70;;;;;;;21.58;93.12;100110.00;5094804;28;20280;-75
2022/11/06 10:18:09;;;;;;;0.80;0.80;;;;;;;21.08;94.96;100087.69;5090195;28;20218;-73
2022/11/06 10:20:46;;;;;;;0.70;0.70;;;;;;;21.23;94.02;100108.34;5090570;28;20221;-74
2022/11/06 10:23:19;;;;;;;1.25;1.15;;;;;;;21.55;92.31;100104.81;5090819;28;20255;-73
2022/11/06 10:25:59;;;;;;;0.90;0.90;;;;;;;21.49;90.31;100110.25;5095697;28;20217;-73
2022/11/06 10:28:48;;;;;;;0.90;0.90;;;;;;;21.76;88.22;100104.16;5053970;28;20267;-74
2022/11/06 10:31:21;;;;;;;0.70;0.70;;;;;;;21.74;89.38;100100.72;5093259;28;20209;-73
2022/11/06 10:33:56;;;;;;;0.70;0.70;;;;;;;21.59;87.93;100069.50;5077517;28;20247;-73
2022/11/06 10:36:28;;;;;;;0.68;0.68;;;;;;;21.71;87.26;100075.28;5089889;28;20202;-73
2022/11/06 10:38:56;;;;;;;1.13;1.10;;;;;;;22.16;85.11;100094.13;5090493;28;20230;-73
2022/11/06 10:41:28;;;;;;;1.15;1.05;;;;;;;22.13;84.52;100086.31;5090102;28;20690;-73
2022/11/06 10:43:58;;;;;;;0.80;0.80;;;;;;;22.32;84.46;100093.63;5076987;28;20673;-73
2022/11/06 10:46:33;;;;;;;0.70;0.70;;;;;;;22.28;84.09;100087.59;5090073;28;20213;-74
2022/11/06 10:49:02;;;;;;;1.42;1.33;;;;;;;22.17;83.63;100074.75;5089875;28;20201;-74
2022/11/06 10:51:51;;;;;;;0.70;0.70;;;;;;;22.51;81.67;100078.91;5093270;28;20218;-74
2022/11/06 10:54:30;;;;;;;0.70;0.70;;;;;;;22.28;83.29;100078.81;5088641;28;20255;-75
2022/11/06 10:57:11;;;;;;;0.70;0.70;;;;;;;22.34;83.68;100090.03;5052208;28;20199;-74
2022/11/06 10:59:38;;;;;;;0.60;0.60;;;;;;;22.01;85.09;100077.94;5090200;28;20259;-74
2022/11/06 11:02:20;;;;;;;0.98;0.98;;;;;;;22.25;85.57;100071.84;5089453;28;20210;-74
2022/11/06 11:04:47;;;;;;;1.10;1.00;;;;;;;21.65;87.43;100054.34;5089770;28;20240;-74
2022/11/06 11:07:15;;;;;;;0.90;0.90;;;;;;;21.88;86.10;100053.63;5083359;28;20206;-73
2022/11/06 11:09:44;;;;;;;0.90;0.90;;;;;;;22.12;85.37;100079.28;5088449;28;20918;-72
2022/11/06 11:12:22;;;;;;;2.03;1.92;;;;;;;22.03;86.61;100076.09;5080210;28;20206;-71
2022/11/06 11:15:06;;;;;;;0.85;0.85;;;;;;;22.05;86.70;100068.97;5073713;28;20210;-73
2022/11/06 11:17:33;;;;;;;1.00;0.98;;;;;;;21.71;88.47;100075.28;5085578;28;20202;-73
2022/11/06 11:20:01;;;;;;;0.75;0.75;;;;;;;21.90;87.25;100070.34;5073795;28;20226;-74
2022/11/06 11:22:27;;;;;;;0.70;0.70;;;;;;;21.87;87.87;100069.53;5086895;28;20252;-73
2022/11/06 11:25:02;;;;;;;0.88;0.88;;;;;;;22.11;88.43;100076.72;5080540;28;20202;-72
2022/11/06 11:27:35;;;;;;;1.52;1.52;;;;;;;22.03;88.82;100066.41;5073890;28;21502;-73
2022/11/06 11:30:03;;;;;;;3.95;1.85;;;;;;;22.05;89.00;100071.59;5073774;28;20199;-70
2022/11/06 11:32:31;;;;;;;0.80;0.80;;;;;;;22.12;87.59;100075.78;5075803;28;20993;-74
2022/11/06 11:34:58;;;;;;;0.80;0.80;;;;;;;22.14;86.71;100068.69;5075591;28;20226;-73
2022/11/06 11:37:28;;;;;;;0.70;0.70;;;;;;;22.09;86.41;100071.47;5074919;28;20211;-73
2022/11/06 11:39:55;;;;;;;6.82;1.45;;;;;;;21.74;88.60;100032.09;5083191;28;20229;-74
2022/11/06 11:42:28;;;;;;;1.65;1.08;;;;;;;22.05;87.34;100069.84;5044501;28;20203;-74
2022/11/06 11:45:15;;;;;;;0.70;0.70;;;;;;;22.07;86.29;100028.41;5081936;28;20214;-74
2022/11/06 11:47:44;;;;;;;0.77;0.77;;;;;;;22.10;86.63;100073.19;5088313;28;20205;-74
2022/11/06 11:50:24;;;;;;;0.70;0.70;;;;;;;22.04;87.34;100073.41;5076610;28;20199;-74
2022/11/06 11:52:55;;;;;;;0.70;0.70;;;;;;;22.27;87.39;100055.94;5095807;28;20266;-73